Avon, Montana
Current Conditions -  °F | °C
As of 5:53 AM on Wednesday 22 Oct 2014 (Local Time) from KHLN Reporting Station
Clear Clear  
Wind Chill: 35°   Ceiling: Unl
Heat Index: 40°   Visibility: 10mi
Dew Point: 31°   Wind: 7mph
Humidity: 70%   Direction: 210°SSW
Pressure: 30.03"   Gusts: NA
Location:  46.59°N, 112.61°W
Report Text: KHLN 221153Z 21006KT 10SM CLR 04/M01 A3003 RMK AO2 SLP195 70023 T00441006 10089 20028 53006
Loading
Personal Weather Stations






























Interactive Weather Map New forecast layout! Learn more

10-Day Weather Forecast

Advertisements
Track Severe Weather on mobile